sensor_id;sensor_type;location;lat;lon;timestamp;temperature;humidity
25668;DHT22;18003;-33.830;151.202;2023-03-01T00:02:08;24.10;99.90
25668;DHT22;18003;-33.830;151.202;2023-03-01T00:04:38;24.10;99.90
25668;DHT22;18003;-33.830;151.202;2023-03-01T00:07:09;24.10;99.90
25668;DHT22;18003;-33.830;151.202;2023-03-01T00:09:39;24.10;99.90
25668;DHT22;18003;-33.830;151.202;2023-03-01T00:12:09;24.20;99.90
25668;DHT22;18003;-33.830;151.202;2023-03-01T00:14:39;24.20;99.90
25668;DHT22;18003;-33.830;151.202;2023-03-01T00:17:09;24.20;99.90
25668;DHT22;18003;-33.830;151.202;2023-03-01T00:19:39;24.20;99.90
25668;DHT22;18003;-33.830;151.202;2023-03-01T00:22:09;24.30;99.90
25668;DHT22;18003;-33.830;151.202;2023-03-01T00:24:39;24.30;99.90
25668;DHT22;18003;-33.830;151.202;2023-03-01T00:27:09;24.30;99.90
25668;DHT22;18003;-33.830;151.202;2023-03-01T00:29:39;24.30;99.90
25668;DHT22;18003;-33.830;151.202;2023-03-01T00:32:09;24.30;99.90
25668;DHT22;18003;-33.830;151.202;2023-03-01T00:34:40;24.30;99.90
25668;DHT22;18003;-33.830;151.202;2023-03-01T00:37:09;24.30;99.90
25668;DHT22;18003;-33.830;151.202;2023-03-01T00:39:39;24.30;99.90
25668;DHT22;18003;-33.830;151.202;2023-03-01T00:42:09;24.30;99.90
25668;DHT22;18003;-33.830;151.202;2023-03-01T00:44:39;24.30;99.90
25668;DHT22;18003;-33.830;151.202;2023-03-01T00:47:09;24.30;99.90
25668;DHT22;18003;-33.830;151.202;2023-03-01T00:49:40;24.30;99.90
25668;DHT22;18003;-33.830;151.202;2023-03-01T00:52:09;24.30;99.90
25668;DHT22;18003;-33.830;151.202;2023-03-01T00:54:39;24.40;99.90
25668;DHT22;18003;-33.830;151.202;2023-03-01T00:57:10;24.40;99.90
25668;DHT22;18003;-33.830;151.202;2023-03-01T00:59:39;24.40;99.90
25668;DHT22;18003;-33.830;151.202;2023-03-01T01:02:10;24.40;99.90
25668;DHT22;18003;-33.830;151.202;2023-03-01T01:04:40;24.30;99.90
25668;DHT22;18003;-33.830;151.202;2023-03-01T01:07:10;24.40;99.90
25668;DHT22;18003;-33.830;151.202;2023-03-01T01:09:40;24.40;99.90
25668;DHT22;18003;-33.830;151.202;2023-03-01T01:12:10;24.40;99.90
25668;DHT22;18003;-33.830;151.202;2023-03-01T01:14:40;24.40;99.90
25668;DHT22;18003;-33.830;151.202;2023-03-01T01:17:09;24.40;99.90
25668;DHT22;18003;-33.830;151.202;2023-03-01T01:19:39;24.50;99.90
25668;DHT22;18003;-33.830;151.202;2023-03-01T01:22:09;24.40;99.90
25668;DHT22;18003;-33.830;151.202;2023-03-01T01:24:39;24.50;99.90
25668;DHT22;18003;-33.830;151.202;2023-03-01T01:27:09;24.50;99.90
25668;DHT22;18003;-33.830;151.202;2023-03-01T01:29:40;24.50;99.90
25668;DHT22;18003;-33.830;151.202;2023-03-01T01:32:10;24.50;99.90
25668;DHT22;18003;-33.830;151.202;2023-03-01T01:34:40;24.40;99.90
25668;DHT22;18003;-33.830;151.202;2023-03-01T01:37:10;24.40;99.90
25668;DHT22;18003;-33.830;151.202;2023-03-01T01:39:40;24.70;99.90
25668;DHT22;18003;-33.830;151.202;2023-03-01T01:42:15;24.90;99.90
25668;DHT22;18003;-33.830;151.202;2023-03-01T01:44:46;25.10;99.90
25668;DHT22;18003;-33.830;151.202;2023-03-01T01:47:18;25.20;99.90
25668;DHT22;18003;-33.830;151.202;2023-03-01T01:49:50;25.00;99.90
25668;DHT22;18003;-33.830;151.202;2023-03-01T01:52:34;25.10;99.90
25668;DHT22;18003;-33.830;151.202;2023-03-01T01:55:20;25.40;99.90
25668;DHT22;18003;-33.830;151.202;2023-03-01T01:57:52;25.60;99.90
25668;DHT22;18003;-33.830;151.202;2023-03-01T02:00:24;25.60;99.90
25668;DHT22;18003;-33.830;151.202;2023-03-01T02:03:11;25.40;99.90
25668;DHT22;18003;-33.830;151.202;2023-03-01T02:06:07;25.70;99.90
25668;DHT22;18003;-33.830;151.202;2023-03-01T02:08:38;25.90;99.90
25668;DHT22;18003;-33.830;151.202;2023-03-01T02:11:10;26.20;99.90
25668;DHT22;18003;-33.830;151.202;2023-03-01T02:13:41;25.90;99.90
25668;DHT22;18003;-33.830;151.202;2023-03-01T02:16:13;25.90;99.90
25668;DHT22;18003;-33.830;151.202;2023-03-01T02:18:44;26.10;99.90
25668;DHT22;18003;-33.830;151.202;2023-03-01T02:24:05;26.50;99.90
25668;DHT22;18003;-33.830;151.202;2023-03-01T02:26:40;26.20;99.90
25668;DHT22;18003;-33.830;151.202;2023-03-01T02:29:11;26.30;99.90
25668;DHT22;18003;-33.830;151.202;2023-03-01T02:31:42;26.50;99.90
25668;DHT22;18003;-33.830;151.202;2023-03-01T02:34:21;26.50;99.90
25668;DHT22;18003;-33.830;151.202;2023-03-01T02:39:31;26.30;99.90
25668;DHT22;18003;-33.830;151.202;2023-03-01T02:42:00;26.40;99.90
25668;DHT22;18003;-33.830;151.202;2023-03-01T02:44:31;26.50;99.90
25668;DHT22;18003;-33.830;151.202;2023-03-01T02:47:02;26.60;99.90
25668;DHT22;18003;-33.830;151.202;2023-03-01T02:49:34;26.50;99.90
25668;DHT22;18003;-33.830;151.202;2023-03-01T02:52:11;26.50;99.90
25668;DHT22;18003;-33.830;151.202;2023-03-01T02:54:40;26.70;99.90
25668;DHT22;18003;-33.830;151.202;2023-03-01T02:57:10;26.80;99.90
25668;DHT22;18003;-33.830;151.202;2023-03-01T02:59:41;27.00;99.90
25668;DHT22;18003;-33.830;151.202;2023-03-01T03:02:26;26.80;99.90
25668;DHT22;18003;-33.830;151.202;2023-03-01T03:05:07;26.80;99.90
25668;DHT22;18003;-33.830;151.202;2023-03-01T03:07:38;27.00;99.90
25668;DHT22;18003;-33.830;151.202;2023-03-01T03:10:11;27.10;99.90
25668;DHT22;18003;-33.830;151.202;2023-03-01T03:12:41;27.10;99.90
25668;DHT22;18003;-33.830;151.202;2023-03-01T03:15:11;27.00;99.90
25668;DHT22;18003;-33.830;151.202;2023-03-01T03:17:42;27.00;99.90
25668;DHT22;18003;-33.830;151.202;2023-03-01T03:20:12;27.20;99.90
25668;DHT22;18003;-33.830;151.202;2023-03-01T03:22:45;27.40;99.90
25668;DHT22;18003;-33.830;151.202;2023-03-01T03:25:15;27.30;99.90
25668;DHT22;18003;-33.830;151.202;2023-03-01T03:27:46;27.10;99.90
25668;DHT22;18003;-33.830;151.202;2023-03-01T03:30:18;27.10;99.90
25668;DHT22;18003;-33.830;151.202;2023-03-01T03:32:50;27.30;99.90
25668;DHT22;18003;-33.830;151.202;2023-03-01T03:35:28;27.50;99.90
25668;DHT22;18003;-33.830;151.202;2023-03-01T03:38:00;27.40;99.90
25668;DHT22;18003;-33.830;151.202;2023-03-01T03:40:38;27.10;99.90
25668;DHT22;18003;-33.830;151.202;2023-03-01T03:43:13;27.20;99.90
25668;DHT22;18003;-33.830;151.202;2023-03-01T03:45:40;27.50;99.90
25668;DHT22;18003;-33.830;151.202;2023-03-01T03:48:10;27.60;99.90
25668;DHT22;18003;-33.830;151.202;2023-03-01T03:50:41;27.40;99.90
25668;DHT22;18003;-33.830;151.202;2023-03-01T03:53:12;27.20;99.90
25668;DHT22;18003;-33.830;151.202;2023-03-01T03:55:42;27.40;99.90
25668;DHT22;18003;-33.830;151.202;2023-03-01T03:58:12;27.40;99.90
25668;DHT22;18003;-33.830;151.202;2023-03-01T04:00:43;27.50;99.90
25668;DHT22;18003;-33.830;151.202;2023-03-01T04:03:15;27.40;99.90
25668;DHT22;18003;-33.830;151.202;2023-03-01T04:05:46;27.30;99.90
25668;DHT22;18003;-33.830;151.202;2023-03-01T04:08:21;27.30;99.90
25668;DHT22;18003;-33.830;151.202;2023-03-01T04:10:55;27.40;99.90
25668;DHT22;18003;-33.830;151.202;2023-03-01T04:13:24;27.50;99.90
25668;DHT22;18003;-33.830;151.202;2023-03-01T04:15:54;27.30;99.90
25668;DHT22;18003;-33.830;151.202;2023-03-01T04:18:24;27.30;99.90
25668;DHT22;18003;-33.830;151.202;2023-03-01T04:20:54;27.40;99.90
25668;DHT22;18003;-33.830;151.202;2023-03-01T04:23:26;27.40;99.90
25668;DHT22;18003;-33.830;151.202;2023-03-01T04:25:57;27.40;99.90
25668;DHT22;18003;-33.830;151.202;2023-03-01T04:28:32;27.10;99.90
25668;DHT22;18003;-33.830;151.202;2023-03-01T04:30:57;27.10;99.90
25668;DHT22;18003;-33.830;151.202;2023-03-01T04:33:29;27.10;99.90
25668;DHT22;18003;-33.830;151.202;2023-03-01T04:35:59;27.20;99.90
25668;DHT22;18003;-33.830;151.202;2023-03-01T04:38:30;27.20;99.90
25668;DHT22;18003;-33.830;151.202;2023-03-01T04:41:00;26.80;99.90
25668;DHT22;18003;-33.830;151.202;2023-03-01T04:43:31;26.90;99.90
25668;DHT22;18003;-33.830;151.202;2023-03-01T04:46:07;27.00;99.90
25668;DHT22;18003;-33.830;151.202;2023-03-01T04:48:41;27.20;99.90
25668;DHT22;18003;-33.830;151.202;2023-03-01T04:51:12;27.00;99.90
25668;DHT22;18003;-33.830;151.202;2023-03-01T04:53:43;26.80;99.90
25668;DHT22;18003;-33.830;151.202;2023-03-01T04:56:13;27.00;99.90
25668;DHT22;18003;-33.830;151.202;2023-03-01T04:58:44;27.00;99.90
25668;DHT22;18003;-33.830;151.202;2023-03-01T05:01:15;27.10;99.90
25668;DHT22;18003;-33.830;151.202;2023-03-01T05:03:47;27.00;99.90
25668;DHT22;18003;-33.830;151.202;2023-03-01T05:06:18;26.80;99.90
25668;DHT22;18003;-33.830;151.202;2023-03-01T05:08:48;26.90;99.90
25668;DHT22;18003;-33.830;151.202;2023-03-01T05:11:18;27.10;99.90
25668;DHT22;18003;-33.830;151.202;2023-03-01T05:13:49;27.20;99.90
25668;DHT22;18003;-33.830;151.202;2023-03-01T05:16:20;27.00;99.90
25668;DHT22;18003;-33.830;151.202;2023-03-01T05:18:50;26.90;99.90
25668;DHT22;18003;-33.830;151.202;2023-03-01T05:21:20;27.00;99.90
25668;DHT22;18003;-33.830;151.202;2023-03-01T05:23:50;27.10;99.90
25668;DHT22;18003;-33.830;151.202;2023-03-01T05:26:21;27.10;99.90
25668;DHT22;18003;-33.830;151.202;2023-03-01T05:28:52;26.80;99.90
25668;DHT22;18003;-33.830;151.202;2023-03-01T05:31:23;26.80;99.90
25668;DHT22;18003;-33.830;151.202;2023-03-01T05:33:53;27.00;99.90
25668;DHT22;18003;-33.830;151.202;2023-03-01T05:36:24;27.10;99.90
25668;DHT22;18003;-33.830;151.202;2023-03-01T05:38:54;27.10;99.90
25668;DHT22;18003;-33.830;151.202;2023-03-01T05:41:24;26.80;99.90
25668;DHT22;18003;-33.830;151.202;2023-03-01T05:43:54;26.80;99.90
25668;DHT22;18003;-33.830;151.202;2023-03-01T05:46:24;26.90;99.90
25668;DHT22;18003;-33.830;151.202;2023-03-01T05:48:54;27.00;99.90
25668;DHT22;18003;-33.830;151.202;2023-03-01T05:51:24;27.00;99.90
25668;DHT22;18003;-33.830;151.202;2023-03-01T05:53:54;26.70;99.90
25668;DHT22;18003;-33.830;151.202;2023-03-01T05:56:24;26.70;99.90
25668;DHT22;18003;-33.830;151.202;2023-03-01T05:58:54;26.90;99.90
25668;DHT22;18003;-33.830;151.202;2023-03-01T06:01:24;26.90;99.90
25668;DHT22;18003;-33.830;151.202;2023-03-01T06:03:54;26.90;99.90
25668;DHT22;18003;-33.830;151.202;2023-03-01T06:06:24;26.60;99.90
25668;DHT22;18003;-33.830;151.202;2023-03-01T06:08:55;26.70;99.90
25668;DHT22;18003;-33.830;151.202;2023-03-01T06:11:25;26.80;99.90
25668;DHT22;18003;-33.830;151.202;2023-03-01T06:13:55;26.80;99.90
25668;DHT22;18003;-33.830;151.202;2023-03-01T06:16:25;26.70;99.90
25668;DHT22;18003;-33.830;151.202;2023-03-01T06:18:55;26.50;99.90
25668;DHT22;18003;-33.830;151.202;2023-03-01T06:21:25;26.60;99.90
25668;DHT22;18003;-33.830;151.202;2023-03-01T06:23:55;26.70;99.90
25668;DHT22;18003;-33.830;151.202;2023-03-01T06:26:25;26.80;99.90
25668;DHT22;18003;-33.830;151.202;2023-03-01T06:29:00;26.90;99.90
25668;DHT22;18003;-33.830;151.202;2023-03-01T06:31:26;26.80;99.90
25668;DHT22;18003;-33.830;151.202;2023-03-01T06:33:56;27.00;99.90
25668;DHT22;18003;-33.830;151.202;2023-03-01T06:36:26;27.10;99.90
25668;DHT22;18003;-33.830;151.202;2023-03-01T06:38:57;27.20;99.90
25668;DHT22;18003;-33.830;151.202;2023-03-01T06:41:26;27.10;99.90
25668;DHT22;18003;-33.830;151.202;2023-03-01T06:43:56;27.00;99.90
25668;DHT22;18003;-33.830;151.202;2023-03-01T06:46:27;27.10;99.90
25668;DHT22;18003;-33.830;151.202;2023-03-01T06:48:57;27.20;99.90
25668;DHT22;18003;-33.830;151.202;2023-03-01T06:51:27;27.30;99.90
25668;DHT22;18003;-33.830;151.202;2023-03-01T06:53:57;27.10;99.90
25668;DHT22;18003;-33.830;151.202;2023-03-01T06:56:27;27.00;99.90
25668;DHT22;18003;-33.830;151.202;2023-03-01T06:58:57;27.10;99.90
25668;DHT22;18003;-33.830;151.202;2023-03-01T07:01:27;27.20;99.90
25668;DHT22;18003;-33.830;151.202;2023-03-01T07:03:57;27.30;99.90
25668;DHT22;18003;-33.830;151.202;2023-03-01T07:06:27;26.90;99.90
25668;DHT22;18003;-33.830;151.202;2023-03-01T07:08:57;26.70;99.90
25668;DHT22;18003;-33.830;151.202;2023-03-01T07:11:27;26.80;99.90
25668;DHT22;18003;-33.830;151.202;2023-03-01T07:13:57;26.90;99.90
25668;DHT22;18003;-33.830;151.202;2023-03-01T07:16:28;26.90;99.90
25668;DHT22;18003;-33.830;151.202;2023-03-01T07:18:58;26.60;99.90
25668;DHT22;18003;-33.830;151.202;2023-03-01T07:21:28;26.70;99.90
25668;DHT22;18003;-33.830;151.202;2023-03-01T07:23:57;27.00;99.90
25668;DHT22;18003;-33.830;151.202;2023-03-01T07:26:28;27.20;99.90
25668;DHT22;18003;-33.830;151.202;2023-03-01T07:29:02;27.30;99.90
25668;DHT22;18003;-33.830;151.202;2023-03-01T07:31:32;27.10;99.90
25668;DHT22;18003;-33.830;151.202;2023-03-01T07:34:02;27.10;99.90
25668;DHT22;18003;-33.830;151.202;2023-03-01T07:36:32;27.30;99.90
25668;DHT22;18003;-33.830;151.202;2023-03-01T07:39:03;27.30;99.90
25668;DHT22;18003;-33.830;151.202;2023-03-01T07:41:34;27.20;99.90
25668;DHT22;18003;-33.830;151.202;2023-03-01T07:44:04;27.00;99.90
25668;DHT22;18003;-33.830;151.202;2023-03-01T07:46:34;27.10;99.90
25668;DHT22;18003;-33.830;151.202;2023-03-01T07:49:04;27.30;99.90
25668;DHT22;18003;-33.830;151.202;2023-03-01T07:51:34;27.20;99.90
25668;DHT22;18003;-33.830;151.202;2023-03-01T07:54:04;27.10;99.90
25668;DHT22;18003;-33.830;151.202;2023-03-01T07:56:34;27.00;99.90
25668;DHT22;18003;-33.830;151.202;2023-03-01T07:59:04;27.10;99.90
25668;DHT22;18003;-33.830;151.202;2023-03-01T08:01:34;27.20;99.90
25668;DHT22;18003;-33.830;151.202;2023-03-01T08:04:05;27.20;99.90
25668;DHT22;18003;-33.830;151.202;2023-03-01T08:06:35;27.10;99.90
25668;DHT22;18003;-33.830;151.202;2023-03-01T08:09:05;27.00;99.90
25668;DHT22;18003;-33.830;151.202;2023-03-01T08:11:36;27.20;99.90
25668;DHT22;18003;-33.830;151.202;2023-03-01T08:14:07;27.20;99.90
25668;DHT22;18003;-33.830;151.202;2023-03-01T08:16:38;27.30;99.90
25668;DHT22;18003;-33.830;151.202;2023-03-01T08:19:12;27.10;99.90
25668;DHT22;18003;-33.830;151.202;2023-03-01T08:21:41;27.00;99.90
25668;DHT22;18003;-33.830;151.202;2023-03-01T08:24:11;27.10;99.90
25668;DHT22;18003;-33.830;151.202;2023-03-01T08:26:41;27.20;99.90
25668;DHT22;18003;-33.830;151.202;2023-03-01T08:29:11;27.30;99.90
25668;DHT22;18003;-33.830;151.202;2023-03-01T08:31:41;27.00;99.90
25668;DHT22;18003;-33.830;151.202;2023-03-01T08:34:14;27.00;99.90
25668;DHT22;18003;-33.830;151.202;2023-03-01T08:36:45;27.10;99.90
25668;DHT22;18003;-33.830;151.202;2023-03-01T08:39:16;27.20;99.90
25668;DHT22;18003;-33.830;151.202;2023-03-01T08:41:47;27.20;99.90
25668;DHT22;18003;-33.830;151.202;2023-03-01T08:44:18;27.00;99.90
25668;DHT22;18003;-33.830;151.202;2023-03-01T08:46:49;27.00;99.90
25668;DHT22;18003;-33.830;151.202;2023-03-01T08:49:20;27.10;99.90
25668;DHT22;18003;-33.830;151.202;2023-03-01T08:51:51;27.20;99.90
25668;DHT22;18003;-33.830;151.202;2023-03-01T08:54:22;27.10;99.90
25668;DHT22;18003;-33.830;151.202;2023-03-01T08:56:52;26.90;99.90
25668;DHT22;18003;-33.830;151.202;2023-03-01T08:59:22;27.00;99.90
25668;DHT22;18003;-33.830;151.202;2023-03-01T09:01:52;27.20;99.90
25668;DHT22;18003;-33.830;151.202;2023-03-01T09:04:22;27.10;99.90
25668;DHT22;18003;-33.830;151.202;2023-03-01T09:06:52;27.10;99.90
25668;DHT22;18003;-33.830;151.202;2023-03-01T09:09:22;26.90;99.90
25668;DHT22;18003;-33.830;151.202;2023-03-01T09:11:52;27.00;99.90
25668;DHT22;18003;-33.830;151.202;2023-03-01T09:14:23;27.10;99.90
25668;DHT22;18003;-33.830;151.202;2023-03-01T09:16:53;27.10;99.90
25668;DHT22;18003;-33.830;151.202;2023-03-01T09:19:23;27.00;99.90
25668;DHT22;18003;-33.830;151.202;2023-03-01T09:21:53;26.80;99.90
25668;DHT22;18003;-33.830;151.202;2023-03-01T09:24:24;27.00;99.90
25668;DHT22;18003;-33.830;151.202;2023-03-01T09:26:55;27.00;99.90
25668;DHT22;18003;-33.830;151.202;2023-03-01T09:29:25;27.10;99.90
25668;DHT22;18003;-33.830;151.202;2023-03-01T09:31:55;27.00;99.90
25668;DHT22;18003;-33.830;151.202;2023-03-01T09:34:25;26.80;99.90
25668;DHT22;18003;-33.830;151.202;2023-03-01T09:36:56;26.90;99.90
25668;DHT22;18003;-33.830;151.202;2023-03-01T09:39:28;27.00;99.90
25668;DHT22;18003;-33.830;151.202;2023-03-01T09:42:02;27.00;99.90
25668;DHT22;18003;-33.830;151.202;2023-03-01T09:44:51;27.00;99.90
25668;DHT22;18003;-33.830;151.202;2023-03-01T09:47:29;26.90;99.90
25668;DHT22;18003;-33.830;151.202;2023-03-01T09:50:15;27.00;99.90
25668;DHT22;18003;-33.830;151.202;2023-03-01T09:52:47;27.10;99.90
25668;DHT22;18003;-33.830;151.202;2023-03-01T09:55:25;27.10;99.90
25668;DHT22;18003;-33.830;151.202;2023-03-01T10:00:47;27.00;99.90
25668;DHT22;18003;-33.830;151.202;2023-03-01T10:03:17;27.10;99.90
25668;DHT22;18003;-33.830;151.202;2023-03-01T10:06:06;27.10;99.90
25668;DHT22;18003;-33.830;151.202;2023-03-01T10:08:53;27.10;99.90
25668;DHT22;18003;-33.830;151.202;2023-03-01T10:11:40;26.90;99.90
25668;DHT22;18003;-33.830;151.202;2023-03-01T10:14:23;27.00;99.90
25668;DHT22;18003;-33.830;151.202;2023-03-01T10:19:44;27.20;99.90
25668;DHT22;18003;-33.830;151.202;2023-03-01T10:22:28;26.90;99.90
25668;DHT22;18003;-33.830;151.202;2023-03-01T10:25:01;27.00;99.90
25668;DHT22;18003;-33.830;151.202;2023-03-01T10:27:48;27.20;99.90
25668;DHT22;18003;-33.830;151.202;2023-03-01T10:30:32;27.20;99.90
25668;DHT22;18003;-33.830;151.202;2023-03-01T10:32:59;27.10;99.90
25668;DHT22;18003;-33.830;151.202;2023-03-01T10:35:31;26.90;99.90
25668;DHT22;18003;-33.830;151.202;2023-03-01T10:38:11;27.00;99.90
25668;DHT22;18003;-33.830;151.202;2023-03-01T10:40:55;27.10;99.90
25668;DHT22;18003;-33.830;151.202;2023-03-01T10:43:27;27.10;99.90
25668;DHT22;18003;-33.830;151.202;2023-03-01T10:45:57;26.90;99.90
25668;DHT22;18003;-33.830;151.202;2023-03-01T10:48:28;26.90;99.90
25668;DHT22;18003;-33.830;151.202;2023-03-01T10:53:43;27.10;99.90
25668;DHT22;18003;-33.830;151.202;2023-03-01T10:56:17;27.10;99.90
25668;DHT22;18003;-33.830;151.202;2023-03-01T10:58:57;26.90;99.90
25668;DHT22;18003;-33.830;151.202;2023-03-01T11:01:34;26.90;99.90
25668;DHT22;18003;-33.830;151.202;2023-03-01T11:04:11;27.00;99.90
25668;DHT22;18003;-33.830;151.202;2023-03-01T11:06:42;27.00;99.90
25668;DHT22;18003;-33.830;151.202;2023-03-01T11:09:24;27.00;99.90
25668;DHT22;18003;-33.830;151.202;2023-03-01T11:11:59;26.70;99.90
25668;DHT22;18003;-33.830;151.202;2023-03-01T11:14:35;26.90;99.90
25668;DHT22;18003;-33.830;151.202;2023-03-01T11:17:15;27.00;99.90
25668;DHT22;18003;-33.830;151.202;2023-03-01T11:19:59;27.00;99.90
25668;DHT22;18003;-33.830;151.202;2023-03-01T11:22:21;26.90;99.90
25668;DHT22;18003;-33.830;151.202;2023-03-01T11:24:53;26.80;99.90
25668;DHT22;18003;-33.830;151.202;2023-03-01T11:27:39;26.90;99.90
25668;DHT22;18003;-33.830;151.202;2023-03-01T11:35:29;26.70;99.90
25668;DHT22;18003;-33.830;151.202;2023-03-01T11:40:44;27.00;99.90
25668;DHT22;18003;-33.830;151.202;2023-03-01T11:46:33;26.60;99.90
25668;DHT22;18003;-33.830;151.202;2023-03-01T11:52:15;26.30;99.90
25668;DHT22;18003;-33.830;151.202;2023-03-01T12:06:28;26.00;99.90
25668;DHT22;18003;-33.830;151.202;2023-03-01T12:09:09;25.90;99.90
25668;DHT22;18003;-33.830;151.202;2023-03-01T12:11:52;25.90;99.90
25668;DHT22;18003;-33.830;151.202;2023-03-01T12:19:59;25.80;99.90
25668;DHT22;18003;-33.830;151.202;2023-03-01T12:22:44;25.80;99.90
25668;DHT22;18003;-33.830;151.202;2023-03-01T12:25:20;25.80;99.90
25668;DHT22;18003;-33.830;151.202;2023-03-01T12:28:17;25.80;99.90
25668;DHT22;18003;-33.830;151.202;2023-03-01T12:36:42;25.70;99.90
25668;DHT22;18003;-33.830;151.202;2023-03-01T12:44:59;25.60;99.90
25668;DHT22;18003;-33.830;151.202;2023-03-01T12:52:55;25.50;99.90
25668;DHT22;18003;-33.830;151.202;2023-03-01T12:55:38;25.50;99.90
25668;DHT22;18003;-33.830;151.202;2023-03-01T12:58:32;25.50;99.90
25668;DHT22;18003;-33.830;151.202;2023-03-01T13:06:40;25.40;99.90
25668;DHT22;18003;-33.830;151.202;2023-03-01T13:11:46;25.40;99.90
25668;DHT22;18003;-33.830;151.202;2023-03-01T13:16:54;25.40;99.90
25668;DHT22;18003;-33.830;151.202;2023-03-01T13:19:28;25.40;99.90
25668;DHT22;18003;-33.830;151.202;2023-03-01T13:22:00;25.30;99.90
25668;DHT22;18003;-33.830;151.202;2023-03-01T13:24:37;25.30;99.90
25668;DHT22;18003;-33.830;151.202;2023-03-01T13:27:11;25.30;99.90
25668;DHT22;18003;-33.830;151.202;2023-03-01T13:29:52;25.30;99.90
25668;DHT22;18003;-33.830;151.202;2023-03-01T13:32:26;25.30;99.90
25668;DHT22;18003;-33.830;151.202;2023-03-01T13:37:51;25.20;99.90
25668;DHT22;18003;-33.830;151.202;2023-03-01T13:42:54;25.20;99.90
25668;DHT22;18003;-33.830;151.202;2023-03-01T13:45:46;25.20;99.90
25668;DHT22;18003;-33.830;151.202;2023-03-01T13:47:58;25.20;99.90
25668;DHT22;18003;-33.830;151.202;2023-03-01T13:50:43;25.20;99.90
25668;DHT22;18003;-33.830;151.202;2023-03-01T13:53:09;25.20;99.90
25668;DHT22;18003;-33.830;151.202;2023-03-01T13:55:43;25.20;99.90
25668;DHT22;18003;-33.830;151.202;2023-03-01T13:58:27;25.20;99.90
25668;DHT22;18003;-33.830;151.202;2023-03-01T14:01:18;25.20;99.90
25668;DHT22;18003;-33.830;151.202;2023-03-01T14:03:42;25.20;99.90
25668;DHT22;18003;-33.830;151.202;2023-03-01T14:06:17;25.20;99.90
25668;DHT22;18003;-33.830;151.202;2023-03-01T14:08:48;25.20;99.90
25668;DHT22;18003;-33.830;151.202;2023-03-01T14:14:32;25.10;99.90
25668;DHT22;18003;-33.830;151.202;2023-03-01T14:17:11;25.10;99.90
25668;DHT22;18003;-33.830;151.202;2023-03-01T14:19:39;25.10;99.90
25668;DHT22;18003;-33.830;151.202;2023-03-01T14:22:28;25.10;99.90
25668;DHT22;18003;-33.830;151.202;2023-03-01T14:25:14;25.10;99.90
25668;DHT22;18003;-33.830;151.202;2023-03-01T14:27:40;25.10;99.90
25668;DHT22;18003;-33.830;151.202;2023-03-01T14:30:17;25.10;99.90
25668;DHT22;18003;-33.830;151.202;2023-03-01T14:32:53;25.10;99.90
25668;DHT22;18003;-33.830;151.202;2023-03-01T14:35:25;25.00;99.90
25668;DHT22;18003;-33.830;151.202;2023-03-01T14:37:55;25.00;99.90
25668;DHT22;18003;-33.830;151.202;2023-03-01T14:42:58;25.00;99.90
25668;DHT22;18003;-33.830;151.202;2023-03-01T14:45:30;25.00;99.90
25668;DHT22;18003;-33.830;151.202;2023-03-01T14:48:04;25.00;99.90
25668;DHT22;18003;-33.830;151.202;2023-03-01T14:50:35;25.00;99.90
25668;DHT22;18003;-33.830;151.202;2023-03-01T14:53:07;24.90;99.90
25668;DHT22;18003;-33.830;151.202;2023-03-01T14:55:41;24.90;99.90
25668;DHT22;18003;-33.830;151.202;2023-03-01T14:58:15;24.90;99.90
25668;DHT22;18003;-33.830;151.202;2023-03-01T15:00:53;24.90;99.90
25668;DHT22;18003;-33.830;151.202;2023-03-01T15:03:40;24.90;99.90
25668;DHT22;18003;-33.830;151.202;2023-03-01T15:06:06;24.90;99.90
25668;DHT22;18003;-33.830;151.202;2023-03-01T15:08:39;24.90;99.90
25668;DHT22;18003;-33.830;151.202;2023-03-01T15:13:56;24.90;99.90
25668;DHT22;18003;-33.830;151.202;2023-03-01T15:16:29;24.90;99.90
25668;DHT22;18003;-33.830;151.202;2023-03-01T15:19:06;24.90;99.90
25668;DHT22;18003;-33.830;151.202;2023-03-01T15:21:37;24.90;99.90
25668;DHT22;18003;-33.830;151.202;2023-03-01T15:26:53;24.90;99.90
25668;DHT22;18003;-33.830;151.202;2023-03-01T15:29:27;24.80;99.90
25668;DHT22;18003;-33.830;151.202;2023-03-01T15:32:35;24.90;99.90
25668;DHT22;18003;-33.830;151.202;2023-03-01T15:34:38;24.90;99.90
25668;DHT22;18003;-33.830;151.202;2023-03-01T15:39:57;24.80;99.90
25668;DHT22;18003;-33.830;151.202;2023-03-01T15:47:55;24.80;99.90
25668;DHT22;18003;-33.830;151.202;2023-03-01T15:50:31;24.80;99.90
25668;DHT22;18003;-33.830;151.202;2023-03-01T15:53:09;24.70;99.90
25668;DHT22;18003;-33.830;151.202;2023-03-01T15:55:34;24.70;99.90
25668;DHT22;18003;-33.830;151.202;2023-03-01T15:58:09;24.70;99.90
25668;DHT22;18003;-33.830;151.202;2023-03-01T16:00:40;24.70;99.90
25668;DHT22;18003;-33.830;151.202;2023-03-01T16:03:11;24.70;99.90
25668;DHT22;18003;-33.830;151.202;2023-03-01T16:05:41;24.60;99.90
25668;DHT22;18003;-33.830;151.202;2023-03-01T16:08:11;24.70;99.90
25668;DHT22;18003;-33.830;151.202;2023-03-01T16:10:41;24.60;99.90
25668;DHT22;18003;-33.830;151.202;2023-03-01T16:13:16;24.60;99.90
25668;DHT22;18003;-33.830;151.202;2023-03-01T16:15:46;24.60;99.90
25668;DHT22;18003;-33.830;151.202;2023-03-01T16:18:16;24.60;99.90
25668;DHT22;18003;-33.830;151.202;2023-03-01T16:20:46;24.60;99.90
25668;DHT22;18003;-33.830;151.202;2023-03-01T16:23:16;24.60;99.90
25668;DHT22;18003;-33.830;151.202;2023-03-01T16:25:46;24.60;99.90
25668;DHT22;18003;-33.830;151.202;2023-03-01T16:28:16;24.60;99.90
25668;DHT22;18003;-33.830;151.202;2023-03-01T16:30:49;24.50;99.90
25668;DHT22;18003;-33.830;151.202;2023-03-01T16:33:19;24.60;99.90
25668;DHT22;18003;-33.830;151.202;2023-03-01T16:35:50;24.50;99.90
25668;DHT22;18003;-33.830;151.202;2023-03-01T16:38:20;24.50;99.90
25668;DHT22;18003;-33.830;151.202;2023-03-01T16:40:50;24.50;99.90
25668;DHT22;18003;-33.830;151.202;2023-03-01T16:43:20;24.50;99.90
25668;DHT22;18003;-33.830;151.202;2023-03-01T16:45:50;24.50;99.90
25668;DHT22;18003;-33.830;151.202;2023-03-01T16:48:20;24.50;99.90
25668;DHT22;18003;-33.830;151.202;2023-03-01T16:51:00;24.40;99.90
25668;DHT22;18003;-33.830;151.202;2023-03-01T16:53:30;24.40;99.90
25668;DHT22;18003;-33.830;151.202;2023-03-01T16:56:00;24.40;99.90
25668;DHT22;18003;-33.830;151.202;2023-03-01T16:58:30;24.40;99.90